This is the latest recevied weather packets stored in our database for station/object K1NOT-WX. If no packets are shown the sender has not sent any weather packets the latest 10 day(s).
| Time | Temp. | Humidity | Pressure | Rain* | Wind** | Luminosity | Snow |
|---|---|---|---|---|---|---|---|
| 1777494432 | 16.11° C | 62% | 1014.9 hPa | 0 mm | - | - | - |
| 1777493533 | 16.67° C | 60% | 1015.2 hPa | 0 mm | - | - | - |
| 1777492632 | 16.11° C | 61% | 1015.2 hPa | 0 mm | - | - | - |
| 1777491732 | 15.56° C | 63% | 1015.2 hPa | 0 mm | - | - | - |
| 1777490832 | 16.11° C | 61% | 1015.6 hPa | 0 mm | - | - | - |
| 1777489932 | 15.56° C | 64% | 1015.6 hPa | 0 mm | - | - | - |
| 1777489032 | 15.56° C | 63% | 1015.6 hPa | 0 mm | - | - | - |
| 1777488132 | 15.56° C | 66% | 1015.9 hPa | 0 mm | - | - | - |
| 1777487232 | 15° C | 67% | 1016.3 hPa | 0 mm | - | - | - |
| 1777486332 | 15.56° C | 64% | 1015.9 hPa | 0 mm | - | - | - |
| 1777485432 | 15° C | 66% | 1016.3 hPa | 0 mm | - | - | - |
| 1777484532 | 13.89° C | 69% | 1016.3 hPa | 0 mm | - | - | - |
| 1777483632 | 13.89° C | 69% | 1016.3 hPa | 0 mm | - | - | - |
| 1777482732 | 12.78° C | 71% | 1016.3 hPa | 0 mm | - | - | - |
| 1777481832 | 12.78° C | 72% | 1016.3 hPa | 0 mm | - | - | - |
| 1777480932 | 12.78° C | 70% | 1016.3 hPa | 0 mm | - | - | - |
| 1777480032 | 13.89° C | 68% | 1016.3 hPa | 0 mm | - | - | - |
| 1777479132 | 13.33° C | 68% | 1016.6 hPa | 0 mm | - | - | - |
| 1777478232 | 12.78° C | 69% | 1016.9 hPa | 0 mm | - | - | - |
| 1777477332 | 12.78° C | 71% | 1016.6 hPa | 0 mm | - | - | - |
| 1777476432 | 12.22° C | 72% | 1016.6 hPa | 0 mm | - | - | - |
| 1777475532 | 11.67° C | 75% | 1017.3 hPa | 0 mm | - | - | - |
| 1777474632 | 11.11° C | 79% | 1016.9 hPa | 0 mm | - | - | - |
| 1777473732 | 10.56° C | 81% | 1016.9 hPa | 0 mm | - | - | - |
| 1777472832 | 11.11° C | 78% | 1016.9 hPa | 0 mm | - | - | - |
* Rain latest hour (hover to see other rain measurements)
** Current wind speed in m/s (hover to see current wind gust speed)